Terminal Aerodrome Forecast
Issued by NWS

Home | Current Version | Previous Version | Text Only | Print | Product List | Glossary On
Versions: 1 2 3 4 5 6 7 8 9 10 11 12 13
000
FTAK31 PAJN 261100
TAFAPG
TAF
PAPG 261130Z 2612/2712 12004KT P6SM -RA FEW025 OVC040
     FM262000 08007KT 5SM -RA BR BKN015 OVC025
     FM270400 VRB03KT P6SM -RA SCT015 OVC025
      AMD LTD TO CLD VIS AND WIND TIL 261500=

USA.gov is the U.S. government's official web portal to all federal, state and local government web resources and services.